Time;durP1;ratioP1;P1;durP2;ratioP2;P2;SDS_P1;SDS_P2;PMS_P1;PMS_P2;Temp;Humidity;BMP_temperature;BMP_pressure;BME280_temperature;BME280_humidity;BME280_pressure;Samples;Min_cycle;Max_cycle;Signal;HPM_P1;HPM_P2
2023/08/24 00:16:24;;;;;;;7.93;6.40;;;;;;;25.34;58.67;100351.41;41587335;28;20488;-69
2023/08/24 00:36:25;;;;;;;6.90;6.18;;;;;;;25.45;59.29;100389.31;41583528;28;20042;-71
2023/08/24 00:56:25;;;;;;;6.90;6.20;;;;;;;24.32;59.65;100238.31;41570371;28;20458;-71
2023/08/24 01:16:29;;;;;;;9.38;6.82;;;;;;;24.76;60.27;100357.75;41573640;28;20045;-71
2023/08/24 01:36:30;;;;;;;9.95;6.40;;;;;;;24.10;60.51;100221.78;41537805;28;20136;-70
2023/08/24 01:56:30;;;;;;;8.35;6.50;;;;;;;24.81;60.98;100358.16;41559578;28;20045;-71
2023/08/24 02:16:31;;;;;;;8.15;6.85;;;;;;;23.66;61.16;100171.97;41567620;28;20485;-70
2023/08/24 02:36:33;;;;;;;8.88;6.95;;;;;;;23.75;61.38;100196.72;41539446;28;20117;-71
2023/08/24 02:56:33;;;;;;;10.73;7.15;;;;;;;24.21;62.06;100286.91;41580750;28;20041;-70
2023/08/24 03:16:33;;;;;;;8.15;6.88;;;;;;;24.62;62.24;100372.25;41567131;28;20942;-70
2023/08/24 03:36:34;;;;;;;8.73;7.50;;;;;;;24.36;62.53;100361.41;41603932;28;20049;-71
2023/08/24 03:56:34;;;;;;;13.40;7.57;;;;;;;24.17;62.83;100360.44;41599283;28;20053;-71
2023/08/24 04:16:35;;;;;;;12.18;7.65;;;;;;;24.29;62.87;100393.72;41580704;28;20064;-72
2023/08/24 04:36:35;;;;;;;13.77;8.73;;;;;;;24.20;63.32;100386.59;41445085;28;20568;-71
2023/08/24 04:56:36;;;;;;;12.70;7.95;;;;;;;24.23;63.16;100399.56;41569067;28;20053;-71
2023/08/24 05:16:36;;;;;;;9.32;6.97;;;;;;;24.45;62.63;100419.63;41574329;28;20045;-70
2023/08/24 05:36:36;;;;;;;12.68;7.65;;;;;;;24.50;62.64;100427.16;41552020;28;20038;-70
2023/08/24 05:56:37;;;;;;;11.07;7.30;;;;;;;24.71;62.25;100432.31;41559050;28;20087;-69
2023/08/24 06:16:37;;;;;;;9.68;7.10;;;;;;;24.64;61.35;100419.75;41567058;28;20459;-69
2023/08/24 06:36:37;;;;;;;12.02;7.65;;;;;;;25.26;60.52;100438.75;41581176;28;20045;-69
2023/08/24 06:56:38;;;;;;;9.65;7.13;;;;;;;25.44;59.74;100440.66;41551164;28;20072;-69
2023/08/24 07:16:38;;;;;;;11.95;7.22;;;;;;;25.67;58.73;100436.66;41617294;28;20038;-69
2023/08/24 07:36:39;;;;;;;8.90;6.70;;;;;;;25.98;57.71;100430.22;41616000;28;20072;-69
2023/08/24 07:56:39;;;;;;;10.30;7.20;;;;;;;26.12;55.99;100419.09;41590155;28;20033;-68
2023/08/24 08:16:39;;;;;;;11.30;7.03;;;;;;;26.43;55.34;100423.22;41603758;28;20115;-71
2023/08/24 08:36:40;;;;;;;10.52;6.07;;;;;;;26.52;52.59;100414.31;41599115;28;20163;-75
2023/08/24 08:56:42;;;;;;;8.95;5.78;;;;;;;26.67;51.60;100414.56;41586381;28;20057;-74
2023/08/24 09:16:43;;;;;;;9.63;5.63;;;;;;;26.56;48.72;100351.09;41565964;28;20194;-71
2023/08/24 09:36:43;;;;;;;8.23;5.25;;;;;;;26.79;50.37;100400.13;41513305;28;20076;-75
2023/08/24 09:56:48;;;;;;;7.38;5.05;;;;;;;26.80;51.35;100383.16;41512130;28;20582;-77
2023/08/24 10:16:49;;;;;;;5.22;4.43;;;;;;;26.97;50.78;100383.28;41612431;28;20119;-75
2023/08/24 10:36:49;;;;;;;7.28;4.88;;;;;;;27.09;50.12;100346.63;41617530;28;20046;-72
2023/08/24 10:56:58;;;;;;;7.38;4.18;;;;;;;27.28;49.87;100340.22;41635621;28;20053;-74
2023/08/24 11:17:02;;;;;;;6.78;4.68;;;;;;;27.32;48.68;100322.97;41622193;28;20132;-72
2023/08/24 11:37:20;;;;;;;6.63;4.25;;;;;;;27.43;47.85;100305.91;41597133;28;20053;-72
2023/08/24 11:57:21;;;;;;;6.75;4.30;;;;;;;27.66;46.15;100307.94;41634554;28;20049;-73
2023/08/24 12:17:22;;;;;;;6.20;4.50;;;;;;;27.86;46.08;100282.69;41552610;28;20037;-70
2023/08/24 12:37:22;;;;;;;4.97;4.45;;;;;;;27.99;45.84;100281.34;41605693;28;20042;-73
2023/08/24 12:57:24;;;;;;;327.55;80.97;;;;;;;28.84;42.18;100261.44;41581094;28;20072;-70
2023/08/24 13:17:24;;;;;;;96.05;28.90;;;;;;;27.87;42.78;100124.72;41597621;28;20386;-70
2023/08/24 13:37:25;;;;;;;32.80;11.87;;;;;;;28.59;41.80;100222.34;41552773;28;20104;-73
2023/08/24 13:57:25;;;;;;;16.00;6.53;;;;;;;28.38;43.88;100180.34;41592455;28;20050;-76
2023/08/24 14:17:26;;;;;;;6.63;4.40;;;;;;;28.48;44.02;100187.28;41591640;28;20142;-81
2023/08/24 14:37:26;;;;;;;8.63;4.13;;;;;;;28.39;44.39;100160.69;41580166;28;20050;-73
2023/08/24 14:57:27;;;;;;;8.10;5.17;;;;;;;28.58;44.24;100174.59;41529413;28;20169;-74
2023/08/24 15:17:30;;;;;;;14.80;5.03;;;;;;;28.95;45.11;100183.75;41475527;28;20053;-77
2023/08/24 15:37:30;;;;;;;7.13;4.47;;;;;;;28.85;44.60;100175.97;41627531;28;20038;-77
2023/08/24 15:57:31;;;;;;;5.83;3.97;;;;;;;28.89;43.32;100155.97;41643104;28;20042;-77
2023/08/24 16:17:32;;;;;;;4.78;3.80;;;;;;;28.52;44.19;100109.50;41613821;28;20075;-75
2023/08/24 16:37:32;;;;;;;4.17;3.77;;;;;;;28.66;44.79;100149.75;41615466;28;20135;-77
2023/08/24 16:57:33;;;;;;;3.97;3.37;;;;;;;28.51;45.37;100155.78;41615405;28;20130;-74
2023/08/24 17:17:34;;;;;;;15.73;6.03;;;;;;;28.54;46.92;100128.81;41570838;28;20054;-77
2023/08/24 17:37:35;;;;;;;28.10;10.23;;;;;;;28.52;46.93;100132.66;41488512;28;20051;-74
2023/08/24 17:57:36;;;;;;;7.10;4.03;;;;;;;28.26;43.95;100139.09;41586870;28;20048;-72
2023/08/24 18:17:39;;;;;;;9.55;4.53;;;;;;;28.09;43.80;100178.25;41513327;28;20049;-71
2023/08/24 18:37:41;;;;;;;9.55;5.00;;;;;;;27.95;44.24;100204.53;41517840;28;20042;-74
2023/08/24 18:57:41;;;;;;;9.88;6.20;;;;;;;27.88;44.74;100200.88;41515590;28;20138;-73
2023/08/24 19:17:42;;;;;;;13.65;7.10;;;;;;;27.15;47.65;100202.47;41544383;28;20099;-71
2023/08/24 19:37:43;;;;;;;8.07;5.53;;;;;;;27.18;46.63;100202.13;41523218;28;20053;-75
2023/08/24 19:57:48;;;;;;;9.38;5.88;;;;;;;26.72;48.00;100226.38;41528795;28;20057;-70
2023/08/24 20:17:49;;;;;;;15.48;6.45;;;;;;;26.59;49.43;100231.31;41519734;28;20041;-71
2023/08/24 20:37:49;;;;;;;13.00;7.18;;;;;;;26.35;48.94;100232.81;41503195;28;20045;-70
2023/08/24 20:57:50;;;;;;;7.70;4.90;;;;;;;26.09;50.17;100240.78;41499308;28;20518;-71
2023/08/24 21:17:51;;;;;;;9.15;5.72;;;;;;;25.91;51.03;100228.34;41546922;28;20057;-69
2023/08/24 21:37:51;;;;;;;11.63;5.95;;;;;;;25.68;52.02;100230.63;41510417;28;20822;-71
2023/08/24 21:57:53;;;;;;;10.75;6.30;;;;;;;25.53;52.36;100203.84;41517975;28;20052;-69
2023/08/24 22:17:54;;;;;;;8.82;6.03;;;;;;;25.29;52.01;100173.44;41537019;28;20072;-69
2023/08/24 22:37:54;;;;;;;15.07;6.60;;;;;;;25.25;52.87;100166.78;41529200;28;20508;-69
2023/08/24 22:57:55;;;;;;;13.15;6.68;;;;;;;25.06;53.25;100152.69;41546880;28;20064;-70
2023/08/24 23:17:55;;;;;;;8.50;6.13;;;;;;;24.91;54.30;100183.31;41524167;28;20416;-68
2023/08/24 23:37:56;;;;;;;11.57;6.65;;;;;;;24.65;55.28;100222.88;41543691;28;20072;-70
2023/08/24 23:57:56;;;;;;;12.05;6.15;;;;;;;24.74;54.73;100238.75;41525799;28;20081;-68
